createdAt,value
2023-03-05T00:02:15.116Z,97642.25
2023-03-05T00:05:23.913Z,97634.50
2023-03-05T00:08:31.851Z,97640.81
2023-03-05T00:11:38.408Z,97640.31
2023-03-05T00:14:45.886Z,97633.84
2023-03-05T00:17:54.178Z,97636.63
2023-03-05T00:21:04.642Z,97640.75
2023-03-05T00:24:16.923Z,97632.69
2023-03-05T00:27:23.682Z,97624.97
2023-03-05T00:30:30.044Z,97629.53
2023-03-05T00:33:36.987Z,97625.91
2023-03-05T00:36:49.982Z,97617.72
2023-03-05T00:39:56.892Z,97611.91
2023-03-05T00:43:02.756Z,97613.31
2023-03-05T00:46:09.791Z,97612.63
2023-03-05T00:49:16.249Z,97614.00
2023-03-05T00:52:25.777Z,97607.66
2023-03-05T00:55:31.686Z,97603.69
2023-03-05T00:58:38.595Z,97597.34
2023-03-05T01:01:44.561Z,97591.41
2023-03-05T01:04:51.403Z,97595.50
2023-03-05T01:08:00.561Z,97588.63
2023-03-05T01:11:09.804Z,97592.09
2023-03-05T01:14:18.865Z,97590.94
2023-03-05T01:17:25.661Z,97596.03
2023-03-05T01:20:31.820Z,97600.84
2023-03-05T01:23:41.237Z,97591.78
2023-03-05T01:26:47.349Z,97599.03
2023-03-05T01:29:56.331Z,97594.91
2023-03-05T01:33:03.876Z,97592.00
2023-03-05T01:36:15.042Z,97575.63
2023-03-05T01:39:23.707Z,97585.00
2023-03-05T01:42:30.559Z,97581.94
2023-03-05T01:45:36.611Z,97584.59
2023-03-05T01:48:49.859Z,97580.59
2023-03-05T01:52:06.008Z,97580.66
2023-03-05T01:55:28.159Z,97578.09
2023-03-05T01:58:35.260Z,97578.34
2023-03-05T02:01:47.511Z,97579.31
2023-03-05T02:05:00.572Z,97565.38
2023-03-05T02:08:17.618Z,97570.06
2023-03-05T02:11:31.825Z,97559.63
2023-03-05T02:14:39.477Z,97565.25
2023-03-05T02:17:49.422Z,97555.22
2023-03-05T02:21:04.816Z,97567.94
2023-03-05T02:24:21.442Z,97543.84
2023-03-05T02:27:37.183Z,97545.66
2023-03-05T02:30:43.115Z,97545.09
2023-03-05T02:33:51.096Z,97557.25
2023-03-05T02:37:04.887Z,97569.38
2023-03-05T02:40:22.524Z,97562.44
2023-03-05T02:43:28.820Z,97556.38
2023-03-05T02:46:36.393Z,97566.25
2023-03-05T02:49:43.392Z,97558.81
2023-03-05T02:52:52.691Z,97547.38
2023-03-05T02:56:00.615Z,97552.16
2023-03-05T02:59:06.557Z,97550.56
2023-03-05T03:02:13.488Z,97553.00
2023-03-05T03:05:19.810Z,97547.06
2023-03-05T03:08:29.497Z,97549.31
2023-03-05T03:11:35.381Z,97547.72
2023-03-05T03:14:50.487Z,97548.47
2023-03-05T03:17:57.437Z,97554.53
2023-03-05T03:21:04.479Z,97547.72
2023-03-05T03:24:13.258Z,97549.03
2023-03-05T03:27:20.067Z,97551.44
2023-03-05T03:30:26.078Z,97538.09
2023-03-05T03:33:32.732Z,97537.19
2023-03-05T03:36:38.690Z,97537.38
2023-03-05T03:39:49.667Z,97534.56
2023-03-05T03:42:55.681Z,97522.81
2023-03-05T03:46:02.372Z,97530.94
2023-03-05T03:49:19.433Z,97520.91
2023-03-05T03:52:33.163Z,97513.19
2023-03-05T03:55:46.676Z,97522.44
2023-03-05T03:58:54.214Z,97516.56
2023-03-05T04:02:00.117Z,97521.47
2023-03-05T04:05:08.006Z,97509.38
2023-03-05T04:08:13.926Z,97512.09
2023-03-05T04:11:30.911Z,97514.16
2023-03-05T04:14:36.880Z,97516.50
2023-03-05T04:17:43.585Z,97507.84
2023-03-05T04:20:49.467Z,97497.75
2023-03-05T04:23:56.119Z,97501.56
2023-03-05T04:27:04.678Z,97499.28
2023-03-05T04:30:25.704Z,97491.34
2023-03-05T04:33:31.574Z,97475.66
2023-03-05T04:36:38.878Z,97466.34
2023-03-05T04:39:44.813Z,97456.50
2023-03-05T04:42:54.285Z,97468.31
2023-03-05T04:46:00.191Z,97466.47
2023-03-05T04:49:06.989Z,97470.16
2023-03-05T04:52:14.610Z,97479.78
2023-03-05T04:55:22.711Z,97467.84
2023-03-05T04:58:31.433Z,97471.66
2023-03-05T05:01:41.615Z,97467.84
2023-03-05T05:04:56.537Z,97468.88
2023-03-05T05:08:08.032Z,97474.88
2023-03-05T05:11:18.421Z,97471.88
2023-03-05T05:14:37.696Z,97472.31
2023-03-05T05:17:49.739Z,97471.84
2023-03-05T05:20:59.124Z,97475.22
2023-03-05T05:24:11.153Z,97471.25
2023-03-05T05:27:17.926Z,97483.31
2023-03-05T05:30:26.387Z,97488.91
2023-03-05T05:33:33.200Z,97487.34
2023-03-05T05:36:39.301Z,97498.09
2023-03-05T05:39:50.408Z,97493.91
2023-03-05T05:42:56.308Z,97494.56
2023-03-05T05:46:09.545Z,97507.97
2023-03-05T05:49:15.559Z,97505.63
2023-03-05T05:52:22.287Z,97499.88
2023-03-05T05:55:28.150Z,97502.59
2023-03-05T05:58:35.065Z,97495.09
2023-03-05T06:01:43.828Z,97493.44
2023-03-05T06:04:51.254Z,97496.88
2023-03-05T06:07:57.334Z,97500.22
2023-03-05T06:11:03.963Z,97495.56
2023-03-05T06:14:10.477Z,97496.53
2023-03-05T06:17:29.779Z,97492.16
2023-03-05T06:20:36.410Z,97501.25
2023-03-05T06:23:43.974Z,97492.38
2023-03-05T06:26:56.939Z,97489.09
2023-03-05T06:30:04.236Z,97488.50
2023-03-05T06:33:15.982Z,97481.25
2023-03-05T06:36:26.502Z,97478.38
2023-03-05T06:39:32.561Z,97472.56
2023-03-05T06:42:42.657Z,97474.84
2023-03-05T06:45:51.455Z,97476.66
2023-03-05T06:49:07.294Z,97475.13
2023-03-05T06:52:13.625Z,97473.16
2023-03-05T06:55:21.646Z,97468.16
2023-03-05T06:58:27.716Z,97458.66
2023-03-05T07:01:34.466Z,97462.06
2023-03-05T07:04:43.460Z,97448.72
2023-03-05T07:07:50.208Z,97449.91
2023-03-05T07:10:56.117Z,97448.59
2023-03-05T07:14:03.533Z,97442.06
2023-03-05T07:17:10.073Z,97440.53
2023-03-05T07:20:19.781Z,97436.13
2023-03-05T07:23:25.706Z,97435.91
2023-03-05T07:26:33.898Z,97433.84
2023-03-05T07:29:40.075Z,97429.16
2023-03-05T07:32:46.941Z,97425.44
2023-03-05T07:35:56.164Z,97426.53
2023-03-05T07:39:03.871Z,97424.88
2023-03-05T07:42:10.414Z,97422.16
2023-03-05T07:45:30.694Z,97422.59
2023-03-05T07:48:37.272Z,97416.63
2023-03-05T07:51:46.773Z,97412.78
2023-03-05T07:54:52.616Z,97402.38
2023-03-05T07:57:59.606Z,97399.94
2023-03-05T08:01:06.042Z,97395.66
2023-03-05T08:04:16.827Z,97398.16
2023-03-05T08:07:34.929Z,97390.81
2023-03-05T08:10:43.836Z,97392.34
2023-03-05T08:13:50.191Z,97385.81
2023-03-05T08:16:57.128Z,97383.53
2023-03-05T08:20:05.742Z,97388.59
2023-03-05T08:23:15.140Z,97383.66
2023-03-05T08:26:27.404Z,97384.75
2023-03-05T08:29:34.239Z,97391.63
2023-03-05T08:32:40.603Z,97391.34
2023-03-05T08:35:54.617Z,97387.28
2023-03-05T08:39:07.142Z,97386.13
2023-03-05T08:42:13.973Z,97388.19
2023-03-05T08:45:21.214Z,97393.00
2023-03-05T08:48:31.927Z,97383.47
2023-03-05T08:51:38.805Z,97377.13
2023-03-05T08:54:50.142Z,97372.06
2023-03-05T08:57:56.277Z,97372.47
2023-03-05T09:01:03.727Z,97369.16
2023-03-05T09:04:09.721Z,97371.13
2023-03-05T09:07:16.915Z,97366.00
2023-03-05T09:10:26.000Z,97362.13
2023-03-05T09:13:33.116Z,97364.91
2023-03-05T09:16:41.199Z,97367.38
2023-03-05T09:19:48.077Z,97367.38
2023-03-05T09:22:54.444Z,97368.06
2023-03-05T09:26:03.856Z,97352.75
2023-03-05T09:29:09.884Z,97369.44
2023-03-05T09:32:24.581Z,97366.09
2023-03-05T09:35:31.079Z,97369.44
2023-03-05T09:38:39.516Z,97362.25
2023-03-05T09:42:34.202Z,97372.22
2023-03-05T09:46:07.056Z,97372.06
2023-03-05T09:49:26.976Z,97369.47
2023-03-05T09:52:48.437Z,97367.50
2023-03-05T09:56:10.257Z,97372.50
2023-03-05T09:59:37.313Z,97366.28
2023-03-05T10:02:56.153Z,97368.09
2023-03-05T10:06:19.823Z,97369.19
2023-03-05T10:09:48.199Z,97364.09
2023-03-05T10:13:00.643Z,97369.28
2023-03-05T10:16:42.961Z,97361.44
2023-03-05T10:20:10.706Z,97358.81
2023-03-05T10:23:37.345Z,97361.47
2023-03-05T10:27:12.283Z,97352.91
2023-03-05T10:30:57.115Z,97353.72
2023-03-05T10:34:41.079Z,97341.84
2023-03-05T10:38:19.084Z,97343.25
2023-03-05T10:41:41.455Z,97339.81
2023-03-05T10:44:55.926Z,97336.22
2023-03-05T10:48:25.215Z,97339.09
2023-03-05T10:51:44.644Z,97331.41
2023-03-05T10:54:56.432Z,97328.78
2023-03-05T10:58:03.348Z,97322.41
2023-03-05T11:01:25.047Z,97312.91
2023-03-05T11:04:36.294Z,97316.91
2023-03-05T11:07:45.759Z,97309.19
2023-03-05T11:11:06.548Z,97309.06
2023-03-05T11:14:31.472Z,97304.22
2023-03-05T11:17:43.574Z,97296.78
2023-03-05T11:20:51.261Z,97293.88
2023-03-05T11:24:22.502Z,97291.38
2023-03-05T11:27:43.006Z,97293.88
2023-03-05T11:31:03.096Z,97285.88
2023-03-05T11:34:30.417Z,97289.44
2023-03-05T11:37:36.820Z,97274.81
2023-03-05T11:40:46.719Z,97282.47
2023-03-05T11:43:58.904Z,97282.59
2023-03-05T11:47:21.079Z,97274.69
2023-03-05T11:50:32.429Z,97270.28
2023-03-05T11:53:42.347Z,97269.75
2023-03-05T11:56:52.883Z,97263.50
2023-03-05T12:00:08.482Z,97259.69
2023-03-05T12:03:23.619Z,97264.78
2023-03-05T12:06:41.081Z,97257.50
2023-03-05T12:09:52.373Z,97254.19
2023-03-05T12:13:24.207Z,97232.06
2023-03-05T12:16:43.867Z,97253.63
2023-03-05T12:20:05.126Z,97243.88
2023-03-05T12:23:28.311Z,97244.78
2023-03-05T12:27:10.262Z,97243.34
2023-03-05T12:31:04.176Z,97243.00
2023-03-05T12:34:50.334Z,97248.16
2023-03-05T12:38:36.327Z,97240.06
2023-03-05T12:41:43.080Z,97245.00
2023-03-05T12:44:49.160Z,97243.69
2023-03-05T12:48:41.465Z,97242.25
2023-03-05T12:51:55.972Z,97237.75
2023-03-05T12:55:23.265Z,97238.91
2023-03-05T12:58:42.763Z,97230.50
2023-03-05T13:01:59.122Z,97230.03
2023-03-05T13:05:23.297Z,97235.00
2023-03-05T13:08:37.924Z,97219.38
2023-03-05T13:11:46.495Z,97243.97
2023-03-05T13:15:11.304Z,97230.56
2023-03-05T13:18:24.969Z,97229.94
2023-03-05T13:21:37.832Z,97225.19
2023-03-05T13:24:47.224Z,97229.09
2023-03-05T13:27:54.097Z,97234.69
2023-03-05T13:31:04.057Z,97225.94
2023-03-05T13:34:21.215Z,97218.66
2023-03-05T13:37:33.519Z,97227.38
2023-03-05T13:40:46.116Z,97225.69
2023-03-05T13:43:56.188Z,97230.22
2023-03-05T13:47:22.362Z,97221.94
2023-03-05T13:50:32.390Z,97218.59
2023-03-05T13:53:39.703Z,97219.50
2023-03-05T13:56:59.450Z,97201.91
2023-03-05T14:00:09.258Z,97224.84
2023-03-05T14:03:30.318Z,97209.47
2023-03-05T14:06:49.549Z,97207.19
2023-03-05T14:09:56.926Z,97208.41
2023-03-05T14:13:16.951Z,97185.09
2023-03-05T14:16:33.448Z,97196.69
2023-03-05T14:19:42.721Z,97191.19
2023-03-05T14:22:52.533Z,97184.81
2023-03-05T14:26:30.259Z,97180.59
2023-03-05T14:29:40.716Z,97182.19
2023-03-05T14:32:49.038Z,97177.06
2023-03-05T14:35:56.378Z,97176.91
2023-03-05T14:39:03.749Z,97177.41
2023-03-05T14:42:32.422Z,97166.63
2023-03-05T14:45:46.366Z,97170.22
2023-03-05T14:48:52.486Z,97166.69
2023-03-05T14:51:59.406Z,97164.22
2023-03-05T14:55:05.991Z,97159.66
2023-03-05T14:58:21.940Z,97157.97
2023-03-05T15:01:30.732Z,97157.06
2023-03-05T15:04:37.744Z,97159.16
2023-03-05T15:07:44.368Z,97155.47
2023-03-05T15:10:51.523Z,97161.63
2023-03-05T15:13:57.607Z,97159.00
2023-03-05T15:17:08.039Z,97153.13
2023-03-05T15:20:20.823Z,97159.09
2023-03-05T15:23:35.497Z,97134.38
2023-03-05T15:26:43.032Z,97140.53
2023-03-05T15:29:51.970Z,97137.00
2023-03-05T15:33:05.051Z,97134.78
2023-03-05T15:36:13.855Z,97136.28
2023-03-05T15:39:19.960Z,97142.50
2023-03-05T15:42:26.788Z,97135.59
2023-03-05T15:45:34.290Z,97145.16
2023-03-05T15:48:50.091Z,97161.84
2023-03-05T15:51:57.186Z,97162.38
2023-03-05T15:55:04.533Z,97161.78
2023-03-05T15:58:11.301Z,97166.94
2023-03-05T16:01:19.514Z,97158.81
2023-03-05T16:04:28.883Z,97155.38
2023-03-05T16:07:42.083Z,97158.13
2023-03-05T16:10:50.471Z,97153.34
2023-03-05T16:13:58.239Z,97146.97
2023-03-05T16:17:06.892Z,97145.75
2023-03-05T16:20:18.847Z,97158.22
2023-03-05T16:23:24.901Z,97149.59
2023-03-05T16:26:41.060Z,97150.44
2023-03-05T16:33:15.854Z,97153.75
2023-03-05T16:36:29.851Z,97162.56
2023-03-05T16:39:36.732Z,97154.88
2023-03-05T16:42:43.295Z,97156.25
2023-03-05T16:45:54.006Z,97163.97
2023-03-05T16:49:00.910Z,97175.44
2023-03-05T16:52:18.606Z,97173.09
2023-03-05T16:55:25.663Z,97176.03
2023-03-05T16:58:33.341Z,97181.53
2023-03-05T17:01:39.374Z,97178.94
2023-03-05T17:04:46.988Z,97163.22
2023-03-05T17:07:56.273Z,97184.56
2023-03-05T17:11:03.134Z,97182.22
2023-03-05T17:14:09.926Z,97186.66
2023-03-05T17:17:17.020Z,97184.31
2023-03-05T17:20:23.093Z,97183.72
2023-03-05T17:23:32.665Z,97189.38
2023-03-05T17:26:38.842Z,97184.56
2023-03-05T17:29:45.682Z,97187.31
2023-03-05T17:32:54.729Z,97185.13
2023-03-05T17:36:02.251Z,97185.41
2023-03-05T17:39:11.079Z,97184.44
2023-03-05T17:42:20.881Z,97193.38
2023-03-05T17:45:30.617Z,97193.25
2023-03-05T17:48:39.412Z,97188.00
2023-03-05T17:51:46.003Z,97178.25
2023-03-05T17:54:56.397Z,97167.88
2023-03-05T17:58:03.083Z,97174.22
2023-03-05T18:01:11.830Z,97179.91
2023-03-05T18:04:19.526Z,97168.97
2023-03-05T18:07:26.387Z,97178.34
2023-03-05T18:10:36.458Z,97172.72
2023-03-05T18:13:43.797Z,97170.38
2023-03-05T18:16:50.646Z,97181.94
2023-03-05T18:19:57.857Z,97171.47
2023-03-05T18:23:08.973Z,97170.34
2023-03-05T18:26:19.259Z,97170.50
2023-03-05T18:29:25.232Z,97173.41
2023-03-05T18:32:32.215Z,97174.94
2023-03-05T18:35:39.679Z,97171.47
2023-03-05T18:38:47.867Z,97172.56
2023-03-05T18:41:56.844Z,97169.16
2023-03-05T18:45:03.783Z,97166.66
2023-03-05T18:48:10.653Z,97167.31
2023-03-05T18:51:22.107Z,97163.47
2023-03-05T18:54:28.153Z,97168.03
2023-03-05T18:57:38.392Z,97167.88
2023-03-05T19:00:49.034Z,97158.69
2023-03-05T19:03:56.198Z,97161.97
2023-03-05T19:07:02.629Z,97165.16
2023-03-05T19:10:13.865Z,97161.28
2023-03-05T19:13:35.054Z,97165.00
2023-03-05T19:16:44.348Z,97155.75
2023-03-05T19:19:54.241Z,97157.72
2023-03-05T19:23:01.323Z,97158.81
2023-03-05T19:26:07.874Z,97151.50
2023-03-05T19:29:18.037Z,97154.38
2023-03-05T19:32:24.958Z,97148.88
2023-03-05T19:35:31.909Z,97149.41
2023-03-05T19:38:38.159Z,97151.06
2023-03-05T19:41:45.021Z,97153.38
2023-03-05T19:44:54.006Z,97149.09
2023-03-05T19:48:01.063Z,97150.19
2023-03-05T19:51:13.002Z,97142.03
2023-03-05T19:54:22.964Z,97142.19
2023-03-05T19:57:30.098Z,97132.28
2023-03-05T20:00:47.123Z,97132.97
2023-03-05T20:03:56.519Z,97137.81
2023-03-05T20:07:04.035Z,97134.47
2023-03-05T20:10:11.220Z,97132.97
2023-03-05T20:13:18.192Z,97128.31
2023-03-05T20:16:32.560Z,97123.75
2023-03-05T20:19:40.979Z,97132.81
2023-03-05T20:22:48.014Z,97127.88
2023-03-05T20:25:55.855Z,97121.56
2023-03-05T20:29:02.776Z,97117.69
2023-03-05T20:32:12.422Z,97117.28
2023-03-05T20:35:32.430Z,97112.91
2023-03-05T20:38:42.310Z,97099.16
2023-03-05T20:41:49.492Z,97107.69
2023-03-05T20:44:56.347Z,97104.25
2023-03-05T20:48:05.334Z,97100.78
2023-03-05T20:51:18.854Z,97099.97
2023-03-05T20:54:27.508Z,97102.03
2023-03-05T20:57:35.053Z,97101.78
2023-03-05T21:00:42.652Z,97100.13
2023-03-05T21:03:53.883Z,97087.44
2023-03-05T21:06:59.906Z,97094.75
2023-03-05T21:10:12.830Z,97081.66
2023-03-05T21:13:19.257Z,97099.31
2023-03-05T21:16:32.595Z,97099.81
2023-03-05T21:19:42.400Z,97094.47
2023-03-05T21:22:49.674Z,97090.72
2023-03-05T21:25:56.253Z,97080.53
2023-03-05T21:29:03.327Z,97091.84
2023-03-05T21:32:09.489Z,97096.13
2023-03-05T21:35:21.964Z,97084.41
2023-03-05T21:38:30.683Z,97085.66
2023-03-05T21:41:37.597Z,97090.34
2023-03-05T21:44:44.589Z,97091.88
2023-03-05T21:47:52.796Z,97087.75
2023-03-05T21:51:02.351Z,97075.47
2023-03-05T21:54:09.380Z,97082.50
2023-03-05T21:57:15.508Z,97079.47
2023-03-05T22:00:24.357Z,97072.72
2023-03-05T22:03:32.023Z,97077.53
2023-03-05T22:06:41.579Z,97076.31
2023-03-05T22:09:48.029Z,97082.91
2023-03-05T22:13:07.178Z,97075.06
2023-03-05T22:16:15.148Z,97073.44
2023-03-05T22:19:22.114Z,97067.34
2023-03-05T22:22:32.091Z,97069.97
2023-03-05T22:25:51.691Z,97068.88
2023-03-05T22:28:57.696Z,97063.88
2023-03-05T22:32:04.554Z,97065.69
2023-03-05T22:35:17.798Z,97056.06
2023-03-05T22:38:28.221Z,97058.13
2023-03-05T22:41:35.307Z,97066.38
2023-03-05T22:44:42.222Z,97058.53
2023-03-05T22:47:51.673Z,97055.50
2023-03-05T22:50:59.482Z,97056.06
2023-03-05T22:54:08.697Z,97058.28
2023-03-05T22:57:15.822Z,97055.78
2023-03-05T23:00:29.321Z,97059.09
2023-03-05T23:03:36.053Z,97055.91
2023-03-05T23:06:42.064Z,97050.00
2023-03-05T23:09:59.612Z,97058.13
2023-03-05T23:13:05.986Z,97052.91
2023-03-05T23:16:12.840Z,97044.34
2023-03-05T23:19:18.770Z,97051.41
2023-03-05T23:22:25.642Z,97045.19
2023-03-05T23:25:37.625Z,97046.00
2023-03-05T23:28:44.536Z,97049.47
2023-03-05T23:31:50.492Z,97044.63
2023-03-05T23:34:59.126Z,97046.72
2023-03-05T23:38:08.390Z,97049.72
2023-03-05T23:41:18.020Z,97048.34
2023-03-05T23:44:25.054Z,97054.94
2023-03-05T23:47:31.726Z,97044.66
2023-03-05T23:50:43.150Z,97051.41
2023-03-05T23:53:51.486Z,97062.25
2023-03-05T23:57:00.024Z,97054.69
